createdAt,value
2022-11-15T00:01:41.971Z,92.00
2022-11-15T00:05:44.043Z,93.80
2022-11-15T00:09:46.286Z,95.40
2022-11-15T00:13:48.247Z,94.70
2022-11-15T00:17:50.817Z,92.80
2022-11-15T00:21:52.676Z,94.80
2022-11-15T00:25:58.955Z,97.10
2022-11-15T00:30:00.862Z,95.60
2022-11-15T00:34:02.747Z,94.10
2022-11-15T00:38:04.811Z,94.20
2022-11-15T00:42:06.669Z,94.60
2022-11-15T00:46:10.632Z,95.40
2022-11-15T00:50:15.133Z,95.10
2022-11-15T00:54:17.455Z,94.80
2022-11-15T00:58:19.811Z,96.60
2022-11-15T01:02:21.800Z,95.50
2022-11-15T01:06:23.648Z,95.10
2022-11-15T01:10:26.900Z,95.40
2022-11-15T01:14:28.832Z,95.40
2022-11-15T01:18:30.759Z,96.10
2022-11-15T01:22:32.624Z,98.40
2022-11-15T01:26:34.465Z,98.00
2022-11-15T01:30:37.254Z,97.90
2022-11-15T01:34:39.075Z,97.20
2022-11-15T01:38:40.967Z,98.10
2022-11-15T01:42:42.831Z,98.20
2022-11-15T01:46:48.441Z,97.20
2022-11-15T01:50:50.765Z,98.10
2022-11-15T01:55:18.944Z,97.50
2022-11-15T01:59:21.185Z,98.00
2022-11-15T02:03:28.144Z,95.80
2022-11-15T02:07:31.836Z,96.70
2022-11-15T02:11:34.104Z,96.80
2022-11-15T02:15:47.367Z,97.70
2022-11-15T02:20:07.977Z,98.20
2022-11-15T02:24:28.370Z,99.00
2022-11-15T02:28:40.645Z,97.90
2022-11-15T02:32:59.865Z,99.50
2022-11-15T02:37:08.467Z,97.30
2022-11-15T02:41:11.911Z,96.40
2022-11-15T02:45:22.501Z,98.10
2022-11-15T02:49:27.172Z,97.50
2022-11-15T02:53:29.653Z,97.40
2022-11-15T02:58:01.253Z,97.80
2022-11-15T03:02:32.202Z,98.30
2022-11-15T03:06:41.789Z,97.70
2022-11-15T03:10:46.347Z,98.90
2022-11-15T03:14:55.305Z,99.90
2022-11-15T03:19:15.619Z,98.60
2022-11-15T03:23:18.610Z,99.90
2022-11-15T03:27:25.797Z,98.40
2022-11-15T03:31:51.207Z,96.10
2022-11-15T03:35:55.051Z,97.40
2022-11-15T03:39:56.872Z,99.60
2022-11-15T03:44:11.038Z,99.90
2022-11-15T03:48:18.495Z,99.90
2022-11-15T03:52:22.037Z,97.60
2022-11-15T03:56:23.865Z,99.70
2022-11-15T04:00:25.924Z,97.90
2022-11-15T04:04:27.806Z,97.30
2022-11-15T04:08:29.633Z,98.50
2022-11-15T04:12:36.177Z,97.40
2022-11-15T04:16:43.524Z,99.10
2022-11-15T04:21:04.507Z,99.90
2022-11-15T04:25:06.640Z,99.00
2022-11-15T04:29:27.251Z,99.90
2022-11-15T04:33:29.442Z,99.90
2022-11-15T04:37:31.467Z,99.90
2022-11-15T04:41:33.330Z,99.10
2022-11-15T04:45:35.167Z,99.90
2022-11-15T04:49:37.032Z,99.90
2022-11-15T04:53:38.889Z,98.80
2022-11-15T04:57:40.800Z,97.90
2022-11-15T05:01:45.051Z,98.50
2022-11-15T05:05:47.154Z,98.80
2022-11-15T05:09:49.006Z,99.90
2022-11-15T05:13:51.126Z,99.90
2022-11-15T05:17:59.069Z,99.90
2022-11-15T05:22:00.934Z,99.90
2022-11-15T05:26:08.977Z,99.90
2022-11-15T05:30:11.611Z,99.90
2022-11-15T05:34:13.557Z,99.90
2022-11-15T05:38:15.516Z,99.90
2022-11-15T05:42:17.671Z,99.90
2022-11-15T05:46:20.019Z,99.90
2022-11-15T05:50:22.011Z,99.90
2022-11-15T05:54:24.852Z,99.70
2022-11-15T05:58:26.788Z,99.90
2022-11-15T06:02:28.751Z,99.90
2022-11-15T06:06:30.631Z,99.90
2022-11-15T06:10:33.458Z,99.90
2022-11-15T06:14:35.311Z,99.90
2022-11-15T06:18:37.838Z,99.90
2022-11-15T06:22:39.635Z,99.90
2022-11-15T06:26:41.509Z,99.90
2022-11-15T06:30:43.369Z,99.90
2022-11-15T06:34:45.263Z,99.90
2022-11-15T06:38:47.096Z,99.90
2022-11-15T06:42:48.988Z,99.90
2022-11-15T06:46:50.829Z,99.90
2022-11-15T06:50:58.242Z,99.90
2022-11-15T06:55:00.157Z,99.90
2022-11-15T06:59:02.162Z,99.90
2022-11-15T07:03:04.304Z,99.90
2022-11-15T07:07:06.319Z,99.90
2022-11-15T07:11:09.126Z,99.90
2022-11-15T07:15:11.071Z,99.90
2022-11-15T07:19:12.882Z,99.90
2022-11-15T07:23:14.714Z,99.90
2022-11-15T07:27:16.631Z,99.90
2022-11-15T07:31:18.565Z,99.90
2022-11-15T07:35:20.442Z,99.90
2022-11-15T07:39:22.286Z,97.70
2022-11-15T07:43:24.127Z,95.60
2022-11-15T07:47:25.937Z,92.90
2022-11-15T07:51:27.828Z,91.30
2022-11-15T07:55:30.765Z,86.30
2022-11-15T07:59:32.686Z,83.30
2022-11-15T08:03:35.090Z,81.40
2022-11-15T08:07:39.091Z,82.20
2022-11-15T08:11:40.932Z,79.40
2022-11-15T08:15:43.840Z,78.30
2022-11-15T08:19:45.808Z,76.50
2022-11-15T08:23:48.341Z,75.60
2022-11-15T08:27:53.813Z,75.10
2022-11-15T08:31:57.061Z,74.60
2022-11-15T08:35:59.808Z,74.00
2022-11-15T08:40:01.763Z,70.60
2022-11-15T08:44:03.788Z,69.70
2022-11-15T08:48:05.874Z,67.30
2022-11-15T08:52:07.672Z,65.40
2022-11-15T08:56:11.216Z,66.70
2022-11-15T09:00:14.381Z,67.20
2022-11-15T09:04:16.208Z,66.90
2022-11-15T09:08:46.174Z,67.40
2022-11-15T09:12:39.961Z,67.60
2022-11-15T09:16:42.086Z,67.30
2022-11-15T09:20:43.923Z,67.20
2022-11-15T09:24:45.838Z,66.40
2022-11-15T09:28:47.796Z,66.80
2022-11-15T09:32:49.653Z,66.20
2022-11-15T09:36:51.517Z,65.30
2022-11-15T09:41:13.307Z,66.40
2022-11-15T09:46:02.079Z,65.40
2022-11-15T09:50:12.446Z,65.10
2022-11-15T09:54:52.715Z,65.00
2022-11-15T09:59:12.034Z,66.80
2022-11-15T10:03:13.724Z,65.30
2022-11-15T10:07:41.611Z,65.20
2022-11-15T10:11:43.917Z,66.10
2022-11-15T10:15:48.813Z,66.00
2022-11-15T10:20:15.423Z,65.00
2022-11-15T10:24:24.820Z,64.10
2022-11-15T10:28:31.570Z,64.80
2022-11-15T10:32:37.293Z,62.90
2022-11-15T10:36:39.187Z,64.70
2022-11-15T10:40:42.546Z,64.40
2022-11-15T10:44:45.982Z,64.80
2022-11-15T10:48:47.912Z,64.30
2022-11-15T10:52:49.868Z,64.30
2022-11-15T10:56:59.359Z,63.10
2022-11-15T11:01:15.638Z,63.00
2022-11-15T11:05:41.757Z,63.20
2022-11-15T11:09:44.705Z,62.40
2022-11-15T11:13:46.628Z,61.70
2022-11-15T11:18:10.319Z,59.90
2022-11-15T11:22:38.121Z,59.20
2022-11-15T11:27:19.900Z,60.30
2022-11-15T11:31:48.617Z,59.50
2022-11-15T11:36:18.735Z,59.70
2022-11-15T11:40:50.154Z,60.50
2022-11-15T11:45:14.854Z,60.70
2022-11-15T11:49:27.453Z,59.90
2022-11-15T11:53:35.833Z,60.20
2022-11-15T11:58:12.317Z,60.10
2022-11-15T12:02:29.758Z,60.70
2022-11-15T12:06:55.924Z,62.30
2022-11-15T12:11:15.748Z,62.00
2022-11-15T12:15:22.177Z,61.70
2022-11-15T12:19:24.113Z,61.50
2022-11-15T12:23:47.333Z,62.80
2022-11-15T12:28:12.341Z,63.10
2022-11-15T12:32:38.727Z,62.90
2022-11-15T12:36:43.883Z,59.90
2022-11-15T12:41:18.416Z,59.20
2022-11-15T12:45:37.810Z,59.20
2022-11-15T12:49:39.581Z,60.00
2022-11-15T12:53:41.511Z,60.30
2022-11-15T12:57:44.096Z,58.90
2022-11-15T13:01:45.961Z,59.20
2022-11-15T13:05:57.150Z,60.30
2022-11-15T13:09:58.962Z,61.40
2022-11-15T13:14:00.879Z,62.40
2022-11-15T13:18:29.170Z,59.40
2022-11-15T13:22:53.599Z,60.20
2022-11-15T13:26:55.713Z,61.30
2022-11-15T13:31:00.588Z,59.70
2022-11-15T13:35:02.710Z,59.20
2022-11-15T13:39:26.829Z,60.50
2022-11-15T13:43:35.237Z,63.00
2022-11-15T13:47:37.079Z,63.00
2022-11-15T13:52:00.668Z,62.30
2022-11-15T13:56:04.520Z,61.80
2022-11-15T14:00:28.142Z,64.10
2022-11-15T14:04:34.825Z,65.40
2022-11-15T14:08:37.110Z,65.40
2022-11-15T14:12:39.605Z,66.70
2022-11-15T14:16:46.880Z,67.20
2022-11-15T14:20:48.729Z,67.80
2022-11-15T14:25:15.325Z,67.50
2022-11-15T14:29:30.269Z,65.90
2022-11-15T14:33:37.453Z,65.70
2022-11-15T14:37:39.359Z,65.60
2022-11-15T14:41:41.203Z,66.80
2022-11-15T14:45:43.817Z,68.60
2022-11-15T14:49:46.278Z,70.10
2022-11-15T14:53:48.462Z,71.60
2022-11-15T14:57:50.327Z,71.80
2022-11-15T15:01:52.161Z,73.10
2022-11-15T15:05:54.063Z,73.50
2022-11-15T15:10:11.275Z,73.90
2022-11-15T15:14:17.704Z,75.00
2022-11-15T15:18:20.800Z,75.90
2022-11-15T15:22:26.390Z,78.40
2022-11-15T15:26:28.305Z,81.90
2022-11-15T15:30:31.696Z,82.80
2022-11-15T15:34:33.679Z,83.50
2022-11-15T15:38:35.853Z,83.70
2022-11-15T15:42:38.033Z,84.20
2022-11-15T15:46:39.874Z,86.70
2022-11-15T15:50:43.947Z,86.50
2022-11-15T15:54:45.936Z,83.60
2022-11-15T15:58:47.766Z,85.50
2022-11-15T16:02:49.832Z,86.00
2022-11-15T16:06:53.944Z,85.10
2022-11-15T16:10:55.866Z,85.00
2022-11-15T16:14:58.177Z,87.10
2022-11-15T16:19:01.782Z,88.50
2022-11-15T16:23:09.038Z,87.50
2022-11-15T16:27:19.551Z,86.30
2022-11-15T16:31:24.379Z,86.80
2022-11-15T16:35:26.282Z,86.60
2022-11-15T16:39:30.854Z,85.70
2022-11-15T16:43:32.675Z,88.30
2022-11-15T16:47:34.512Z,88.50
2022-11-15T16:51:36.356Z,87.00
2022-11-15T16:55:38.203Z,87.70
2022-11-15T16:59:40.116Z,90.50
2022-11-15T17:03:41.957Z,91.50
2022-11-15T17:07:43.836Z,92.20
2022-11-15T17:11:46.149Z,92.70
2022-11-15T17:15:48.086Z,92.70
2022-11-15T17:19:50.028Z,92.00
2022-11-15T17:23:51.997Z,91.50
2022-11-15T17:27:53.910Z,91.50
2022-11-15T17:31:56.069Z,91.20
2022-11-15T17:35:59.674Z,90.50
2022-11-15T17:40:01.589Z,91.40
2022-11-15T17:44:03.767Z,92.30
2022-11-15T17:48:05.986Z,91.10
2022-11-15T17:52:08.201Z,91.80
2022-11-15T17:56:15.911Z,92.70
2022-11-15T18:00:20.939Z,93.10
2022-11-15T18:04:28.233Z,92.70
2022-11-15T18:08:30.190Z,94.70
2022-11-15T18:12:32.011Z,93.90
2022-11-15T18:16:36.914Z,93.70
2022-11-15T18:20:38.753Z,93.50
2022-11-15T18:24:42.944Z,94.80
2022-11-15T18:28:49.675Z,95.10
2022-11-15T18:32:52.384Z,95.80
2022-11-15T18:36:54.343Z,93.80
2022-11-15T18:41:06.909Z,92.90
2022-11-15T18:45:09.686Z,93.70
2022-11-15T18:49:13.588Z,94.30
2022-11-15T18:53:16.575Z,93.90
2022-11-15T18:57:18.407Z,95.90
2022-11-15T19:01:23.139Z,95.70
2022-11-15T19:05:25.154Z,96.20
2022-11-15T19:09:32.726Z,94.50
2022-11-15T19:13:35.400Z,94.80
2022-11-15T19:17:37.503Z,94.90
2022-11-15T19:21:39.353Z,95.70
2022-11-15T19:25:41.248Z,95.20
2022-11-15T19:29:43.121Z,95.60
2022-11-15T19:33:45.792Z,94.40
2022-11-15T19:37:47.646Z,94.20
2022-11-15T19:41:50.130Z,93.60
2022-11-15T19:46:02.441Z,94.20
2022-11-15T19:50:04.922Z,94.90
2022-11-15T19:54:08.920Z,94.30
2022-11-15T19:58:10.908Z,94.90
2022-11-15T20:02:12.710Z,94.50
2022-11-15T20:06:20.375Z,94.40
2022-11-15T20:10:22.265Z,93.40
2022-11-15T20:14:24.245Z,93.20
2022-11-15T20:18:27.766Z,94.20
2022-11-15T20:22:29.562Z,93.90
2022-11-15T20:26:32.323Z,93.20
2022-11-15T20:30:34.455Z,95.00
2022-11-15T20:34:36.324Z,94.00
2022-11-15T20:38:38.334Z,93.20
2022-11-15T20:42:40.210Z,94.20
2022-11-15T20:46:42.039Z,94.30
2022-11-15T20:50:45.784Z,94.90
2022-11-15T20:54:47.641Z,94.80
2022-11-15T20:58:50.697Z,95.00
2022-11-15T21:02:53.383Z,96.50
2022-11-15T21:06:55.347Z,95.30
2022-11-15T21:11:15.761Z,96.20
2022-11-15T21:15:17.677Z,97.30
2022-11-15T21:19:24.026Z,97.10
2022-11-15T21:23:29.032Z,97.60
2022-11-15T21:27:30.860Z,99.30
2022-11-15T21:31:33.538Z,98.60
2022-11-15T21:35:35.768Z,97.20
2022-11-15T21:39:38.366Z,96.80
2022-11-15T21:43:40.195Z,96.90
2022-11-15T21:47:45.805Z,96.40
2022-11-15T21:51:49.007Z,97.40
2022-11-15T21:55:51.087Z,96.60
2022-11-15T22:00:11.587Z,98.20
2022-11-15T22:04:14.175Z,99.90
2022-11-15T22:08:17.197Z,99.90
2022-11-15T22:12:19.108Z,98.00
2022-11-15T22:16:20.966Z,99.60
2022-11-15T22:20:43.632Z,99.90
2022-11-15T22:24:44.733Z,99.90
2022-11-15T22:28:46.955Z,99.90
2022-11-15T22:32:48.922Z,99.70
2022-11-15T22:37:19.247Z,98.60
2022-11-15T22:41:13.135Z,99.30
2022-11-15T22:45:15.020Z,99.90
2022-11-15T22:49:16.986Z,99.90
2022-11-15T22:53:19.216Z,99.90
2022-11-15T22:57:21.085Z,99.40
2022-11-15T23:01:23.010Z,99.90
2022-11-15T23:05:24.878Z,99.60
2022-11-15T23:09:26.881Z,97.20
2022-11-15T23:13:30.249Z,97.70
2022-11-15T23:17:32.569Z,97.50
2022-11-15T23:21:58.350Z,98.40
2022-11-15T23:26:00.215Z,99.90
2022-11-15T23:30:20.784Z,99.90
2022-11-15T23:34:22.759Z,99.90
2022-11-15T23:38:24.643Z,99.90
2022-11-15T23:42:26.484Z,99.90
2022-11-15T23:46:28.407Z,99.90
2022-11-15T23:50:32.704Z,99.90
2022-11-15T23:54:34.609Z,99.90
2022-11-15T23:58:36.756Z,99.90
